sensor_id;sensor_type;location;lat;lon;timestamp;P1;durP1;ratioP1;P2;durP2;ratioP2
56427;SDS011;42331;53.578;9.760;2023-08-01T00:00:51;0.47;;;0.20;;
56427;SDS011;42331;53.578;9.760;2023-08-01T00:03:22;0.85;;;0.35;;
56427;SDS011;42331;53.578;9.760;2023-08-01T00:05:52;0.30;;;0.20;;
56427;SDS011;42331;53.578;9.760;2023-08-01T00:08:25;0.57;;;0.30;;
56427;SDS011;42331;53.578;9.760;2023-08-01T00:10:55;1.02;;;0.60;;
56427;SDS011;42331;53.578;9.760;2023-08-01T00:13:26;0.40;;;0.17;;
56427;SDS011;42331;53.578;9.760;2023-08-01T00:15:57;0.15;;;0.10;;
56427;SDS011;42331;53.578;9.760;2023-08-01T00:18:27;0.60;;;0.30;;
56427;SDS011;42331;53.578;9.760;2023-08-01T00:20:58;0.40;;;0.20;;
56427;SDS011;42331;53.578;9.760;2023-08-01T00:23:29;0.77;;;0.50;;
56427;SDS011;42331;53.578;9.760;2023-08-01T00:26:00;0.35;;;0.22;;
56427;SDS011;42331;53.578;9.760;2023-08-01T00:28:31;0.35;;;0.15;;
56427;SDS011;42331;53.578;9.760;2023-08-01T00:31:05;0.20;;;0.10;;
56427;SDS011;42331;53.578;9.760;2023-08-01T00:33:36;0.38;;;0.20;;
56427;SDS011;42331;53.578;9.760;2023-08-01T00:36:07;0.52;;;0.10;;
56427;SDS011;42331;53.578;9.760;2023-08-01T00:38:39;0.40;;;0.20;;
56427;SDS011;42331;53.578;9.760;2023-08-01T00:43:41;0.65;;;0.28;;
56427;SDS011;42331;53.578;9.760;2023-08-01T00:46:12;1.88;;;0.25;;
56427;SDS011;42331;53.578;9.760;2023-08-01T00:48:43;0.38;;;0.30;;
56427;SDS011;42331;53.578;9.760;2023-08-01T00:51:13;0.45;;;0.20;;
56427;SDS011;42331;53.578;9.760;2023-08-01T00:53:45;0.47;;;0.20;;
56427;SDS011;42331;53.578;9.760;2023-08-01T00:56:16;0.43;;;0.30;;
56427;SDS011;42331;53.578;9.760;2023-08-01T00:58:47;0.60;;;0.20;;
56427;SDS011;42331;53.578;9.760;2023-08-01T01:01:18;0.52;;;0.40;;
56427;SDS011;42331;53.578;9.760;2023-08-01T01:03:48;0.40;;;0.30;;
56427;SDS011;42331;53.578;9.760;2023-08-01T01:06:23;0.32;;;0.20;;
56427;SDS011;42331;53.578;9.760;2023-08-01T01:08:58;0.38;;;0.20;;
56427;SDS011;42331;53.578;9.760;2023-08-01T01:11:29;0.90;;;0.57;;
56427;SDS011;42331;53.578;9.760;2023-08-01T01:13:59;0.93;;;0.63;;
56427;SDS011;42331;53.578;9.760;2023-08-01T01:16:30;1.10;;;0.57;;
56427;SDS011;42331;53.578;9.760;2023-08-01T01:19:01;0.98;;;0.55;;
56427;SDS011;42331;53.578;9.760;2023-08-01T01:24:50;0.88;;;0.50;;
56427;SDS011;42331;53.578;9.760;2023-08-01T01:27:23;0.60;;;0.38;;
56427;SDS011;42331;53.578;9.760;2023-08-01T01:29:56;0.80;;;0.40;;
56427;SDS011;42331;53.578;9.760;2023-08-01T01:35:00;1.05;;;0.50;;
56427;SDS011;42331;53.578;9.760;2023-08-01T01:37:32;1.40;;;0.70;;
56427;SDS011;42331;53.578;9.760;2023-08-01T01:40:02;1.02;;;0.60;;
56427;SDS011;42331;53.578;9.760;2023-08-01T01:42:34;1.42;;;0.70;;
56427;SDS011;42331;53.578;9.760;2023-08-01T01:45:05;1.50;;;0.90;;
56427;SDS011;42331;53.578;9.760;2023-08-01T01:47:36;1.08;;;0.50;;
56427;SDS011;42331;53.578;9.760;2023-08-01T01:50:06;1.35;;;0.75;;
56427;SDS011;42331;53.578;9.760;2023-08-01T01:52:38;1.33;;;0.60;;
56427;SDS011;42331;53.578;9.760;2023-08-01T01:55:09;0.93;;;0.60;;
56427;SDS011;42331;53.578;9.760;2023-08-01T01:57:40;1.07;;;0.77;;
56427;SDS011;42331;53.578;9.760;2023-08-01T02:00:11;1.48;;;0.90;;
56427;SDS011;42331;53.578;9.760;2023-08-01T02:02:42;1.80;;;1.13;;
56427;SDS011;42331;53.578;9.760;2023-08-01T02:05:13;1.20;;;0.70;;
56427;SDS011;42331;53.578;9.760;2023-08-01T02:07:43;2.20;;;1.10;;
56427;SDS011;42331;53.578;9.760;2023-08-01T02:10:14;2.25;;;0.88;;
56427;SDS011;42331;53.578;9.760;2023-08-01T02:12:45;2.42;;;1.15;;
56427;SDS011;42331;53.578;9.760;2023-08-01T02:15:16;2.00;;;1.10;;
56427;SDS011;42331;53.578;9.760;2023-08-01T02:17:46;1.73;;;1.10;;
56427;SDS011;42331;53.578;9.760;2023-08-01T02:20:17;4.03;;;1.75;;
56427;SDS011;42331;53.578;9.760;2023-08-01T02:22:48;3.07;;;1.10;;
56427;SDS011;42331;53.578;9.760;2023-08-01T02:25:18;1.80;;;1.10;;
56427;SDS011;42331;53.578;9.760;2023-08-01T02:27:49;1.67;;;1.17;;
56427;SDS011;42331;53.578;9.760;2023-08-01T02:30:22;1.92;;;0.88;;
56427;SDS011;42331;53.578;9.760;2023-08-01T02:32:53;2.67;;;1.58;;
56427;SDS011;42331;53.578;9.760;2023-08-01T02:35:24;2.33;;;1.20;;
56427;SDS011;42331;53.578;9.760;2023-08-01T02:37:58;3.28;;;1.60;;
56427;SDS011;42331;53.578;9.760;2023-08-01T02:40:29;2.72;;;1.83;;
56427;SDS011;42331;53.578;9.760;2023-08-01T02:43:00;2.83;;;1.55;;
56427;SDS011;42331;53.578;9.760;2023-08-01T02:45:30;4.40;;;1.97;;
56427;SDS011;42331;53.578;9.760;2023-08-01T02:48:01;2.73;;;1.53;;
56427;SDS011;42331;53.578;9.760;2023-08-01T02:50:32;2.53;;;1.63;;
56427;SDS011;42331;53.578;9.760;2023-08-01T02:53:04;2.37;;;1.40;;
56427;SDS011;42331;53.578;9.760;2023-08-01T02:55:35;2.40;;;1.55;;
56427;SDS011;42331;53.578;9.760;2023-08-01T02:58:05;2.42;;;1.50;;
56427;SDS011;42331;53.578;9.760;2023-08-01T03:00:37;3.20;;;1.93;;
56427;SDS011;42331;53.578;9.760;2023-08-01T03:03:09;2.28;;;1.45;;
56427;SDS011;42331;53.578;9.760;2023-08-01T03:05:40;2.53;;;1.70;;
56427;SDS011;42331;53.578;9.760;2023-08-01T03:08:11;2.85;;;1.80;;
56427;SDS011;42331;53.578;9.760;2023-08-01T03:13:13;2.30;;;1.40;;
56427;SDS011;42331;53.578;9.760;2023-08-01T03:15:44;2.83;;;1.65;;
56427;SDS011;42331;53.578;9.760;2023-08-01T03:18:14;2.33;;;1.30;;
56427;SDS011;42331;53.578;9.760;2023-08-01T03:20:45;1.88;;;1.17;;
56427;SDS011;42331;53.578;9.760;2023-08-01T03:23:16;2.33;;;1.27;;
56427;SDS011;42331;53.578;9.760;2023-08-01T03:25:47;2.88;;;1.75;;
56427;SDS011;42331;53.578;9.760;2023-08-01T03:28:17;3.00;;;1.80;;
56427;SDS011;42331;53.578;9.760;2023-08-01T03:30:53;3.33;;;1.73;;
56427;SDS011;42331;53.578;9.760;2023-08-01T03:33:24;2.50;;;1.52;;
56427;SDS011;42331;53.578;9.760;2023-08-01T03:35:55;2.50;;;1.70;;
56427;SDS011;42331;53.578;9.760;2023-08-01T03:38:26;2.13;;;1.17;;
56427;SDS011;42331;53.578;9.760;2023-08-01T03:40:56;3.77;;;1.93;;
56427;SDS011;42331;53.578;9.760;2023-08-01T03:43:30;2.30;;;1.50;;
56427;SDS011;42331;53.578;9.760;2023-08-01T03:46:01;3.17;;;1.85;;
56427;SDS011;42331;53.578;9.760;2023-08-01T03:48:31;4.00;;;2.37;;
56427;SDS011;42331;53.578;9.760;2023-08-01T03:51:02;2.53;;;1.65;;
56427;SDS011;42331;53.578;9.760;2023-08-01T03:53:34;2.65;;;1.77;;
56427;SDS011;42331;53.578;9.760;2023-08-01T03:56:04;2.80;;;1.65;;
56427;SDS011;42331;53.578;9.760;2023-08-01T03:58:35;2.55;;;1.77;;
56427;SDS011;42331;53.578;9.760;2023-08-01T04:01:06;3.28;;;1.85;;
56427;SDS011;42331;53.578;9.760;2023-08-01T04:03:37;3.72;;;2.13;;
56427;SDS011;42331;53.578;9.760;2023-08-01T04:06:07;2.93;;;1.40;;
56427;SDS011;42331;53.578;9.760;2023-08-01T04:08:38;2.92;;;1.85;;
56427;SDS011;42331;53.578;9.760;2023-08-01T04:11:11;3.42;;;1.80;;
56427;SDS011;42331;53.578;9.760;2023-08-01T04:13:45;2.63;;;1.77;;
56427;SDS011;42331;53.578;9.760;2023-08-01T04:16:15;2.92;;;1.70;;
56427;SDS011;42331;53.578;9.760;2023-08-01T04:18:46;2.90;;;2.00;;
56427;SDS011;42331;53.578;9.760;2023-08-01T04:21:17;4.38;;;2.30;;
56427;SDS011;42331;53.578;9.760;2023-08-01T04:23:51;2.95;;;1.88;;
56427;SDS011;42331;53.578;9.760;2023-08-01T04:26:22;2.60;;;1.50;;
56427;SDS011;42331;53.578;9.760;2023-08-01T04:28:53;1.55;;;1.10;;
56427;SDS011;42331;53.578;9.760;2023-08-01T04:31:23;3.13;;;2.35;;
56427;SDS011;42331;53.578;9.760;2023-08-01T04:33:54;3.53;;;2.20;;
56427;SDS011;42331;53.578;9.760;2023-08-01T04:36:31;3.38;;;1.90;;
56427;SDS011;42331;53.578;9.760;2023-08-01T04:39:01;3.20;;;2.00;;
56427;SDS011;42331;53.578;9.760;2023-08-01T04:41:32;3.30;;;2.30;;
56427;SDS011;42331;53.578;9.760;2023-08-01T04:44:03;3.15;;;2.13;;
56427;SDS011;42331;53.578;9.760;2023-08-01T04:46:36;2.72;;;1.92;;
56427;SDS011;42331;53.578;9.760;2023-08-01T04:49:07;3.08;;;1.70;;
56427;SDS011;42331;53.578;9.760;2023-08-01T04:51:40;3.83;;;2.15;;
56427;SDS011;42331;53.578;9.760;2023-08-01T04:54:11;3.15;;;1.98;;
56427;SDS011;42331;53.578;9.760;2023-08-01T04:56:44;2.95;;;1.77;;
56427;SDS011;42331;53.578;9.760;2023-08-01T04:59:15;2.33;;;1.70;;
56427;SDS011;42331;53.578;9.760;2023-08-01T05:01:48;2.17;;;1.60;;
56427;SDS011;42331;53.578;9.760;2023-08-01T05:04:22;2.45;;;1.48;;
56427;SDS011;42331;53.578;9.760;2023-08-01T05:06:53;2.88;;;1.50;;
56427;SDS011;42331;53.578;9.760;2023-08-01T05:09:23;1.48;;;0.93;;
56427;SDS011;42331;53.578;9.760;2023-08-01T05:11:54;3.05;;;1.45;;
56427;SDS011;42331;53.578;9.760;2023-08-01T05:14:29;3.00;;;1.80;;
56427;SDS011;42331;53.578;9.760;2023-08-01T05:17:00;3.25;;;1.67;;
56427;SDS011;42331;53.578;9.760;2023-08-01T05:19:31;2.70;;;1.87;;
56427;SDS011;42331;53.578;9.760;2023-08-01T05:22:02;5.50;;;2.10;;
56427;SDS011;42331;53.578;9.760;2023-08-01T05:24:32;2.53;;;1.88;;
56427;SDS011;42331;53.578;9.760;2023-08-01T05:27:06;2.63;;;1.50;;
56427;SDS011;42331;53.578;9.760;2023-08-01T05:29:39;2.92;;;1.27;;
56427;SDS011;42331;53.578;9.760;2023-08-01T05:32:10;4.60;;;1.75;;
56427;SDS011;42331;53.578;9.760;2023-08-01T05:34:40;2.28;;;1.58;;
56427;SDS011;42331;53.578;9.760;2023-08-01T05:37:14;2.23;;;1.30;;
56427;SDS011;42331;53.578;9.760;2023-08-01T05:39:44;2.55;;;1.40;;
56427;SDS011;42331;53.578;9.760;2023-08-01T05:42:21;2.67;;;1.67;;
56427;SDS011;42331;53.578;9.760;2023-08-01T05:45:00;1.67;;;1.02;;
56427;SDS011;42331;53.578;9.760;2023-08-01T05:47:38;2.38;;;1.55;;
56427;SDS011;42331;53.578;9.760;2023-08-01T05:50:10;2.33;;;1.50;;
56427;SDS011;42331;53.578;9.760;2023-08-01T05:52:42;2.55;;;1.42;;
56427;SDS011;42331;53.578;9.760;2023-08-01T05:55:12;1.87;;;1.10;;
56427;SDS011;42331;53.578;9.760;2023-08-01T05:57:43;2.10;;;1.27;;
56427;SDS011;42331;53.578;9.760;2023-08-01T06:00:16;2.00;;;1.27;;
56427;SDS011;42331;53.578;9.760;2023-08-01T06:02:47;3.38;;;1.85;;
56427;SDS011;42331;53.578;9.760;2023-08-01T06:05:21;2.63;;;1.30;;
56427;SDS011;42331;53.578;9.760;2023-08-01T06:08:16;2.47;;;1.50;;
56427;SDS011;42331;53.578;9.760;2023-08-01T06:10:46;2.03;;;0.90;;
56427;SDS011;42331;53.578;9.760;2023-08-01T06:13:17;3.17;;;1.08;;
56427;SDS011;42331;53.578;9.760;2023-08-01T06:15:51;2.40;;;1.40;;
56427;SDS011;42331;53.578;9.760;2023-08-01T06:18:22;1.88;;;1.23;;
56427;SDS011;42331;53.578;9.760;2023-08-01T06:20:52;1.80;;;1.23;;
56427;SDS011;42331;53.578;9.760;2023-08-01T06:23:23;1.60;;;1.00;;
56427;SDS011;42331;53.578;9.760;2023-08-01T06:25:54;1.63;;;1.00;;
56427;SDS011;42331;53.578;9.760;2023-08-01T06:28:28;2.92;;;1.13;;
56427;SDS011;42331;53.578;9.760;2023-08-01T06:30:59;1.90;;;1.13;;
56427;SDS011;42331;53.578;9.760;2023-08-01T06:33:29;1.55;;;0.98;;
56427;SDS011;42331;53.578;9.760;2023-08-01T06:36:00;1.50;;;0.83;;
56427;SDS011;42331;53.578;9.760;2023-08-01T06:38:31;2.33;;;1.33;;
56427;SDS011;42331;53.578;9.760;2023-08-01T06:41:01;1.23;;;0.73;;
56427;SDS011;42331;53.578;9.760;2023-08-01T06:43:34;0.95;;;0.60;;
56427;SDS011;42331;53.578;9.760;2023-08-01T06:46:08;1.50;;;0.85;;
56427;SDS011;42331;53.578;9.760;2023-08-01T06:48:39;1.17;;;0.75;;
56427;SDS011;42331;53.578;9.760;2023-08-01T06:51:10;1.17;;;0.60;;
56427;SDS011;42331;53.578;9.760;2023-08-01T06:53:41;1.73;;;0.95;;
56427;SDS011;42331;53.578;9.760;2023-08-01T06:56:12;1.00;;;0.50;;
56427;SDS011;42331;53.578;9.760;2023-08-01T06:58:43;1.37;;;0.60;;
56427;SDS011;42331;53.578;9.760;2023-08-01T07:01:17;0.82;;;0.52;;
56427;SDS011;42331;53.578;9.760;2023-08-01T07:03:48;1.23;;;0.73;;
56427;SDS011;42331;53.578;9.760;2023-08-01T07:06:21;1.27;;;0.70;;
56427;SDS011;42331;53.578;9.760;2023-08-01T07:08:53;1.30;;;0.90;;
56427;SDS011;42331;53.578;9.760;2023-08-01T07:11:24;0.95;;;0.63;;
56427;SDS011;42331;53.578;9.760;2023-08-01T07:13:54;1.65;;;0.60;;
56427;SDS011;42331;53.578;9.760;2023-08-01T07:16:25;1.33;;;0.60;;
56427;SDS011;42331;53.578;9.760;2023-08-01T07:18:56;2.07;;;0.80;;
56427;SDS011;42331;53.578;9.760;2023-08-01T07:21:28;1.00;;;0.60;;
56427;SDS011;42331;53.578;9.760;2023-08-01T07:23:59;1.92;;;0.70;;
56427;SDS011;42331;53.578;9.760;2023-08-01T07:26:29;1.13;;;0.50;;
56427;SDS011;42331;53.578;9.760;2023-08-01T07:29:00;1.52;;;0.55;;
56427;SDS011;42331;53.578;9.760;2023-08-01T07:31:31;1.55;;;0.82;;
56427;SDS011;42331;53.578;9.760;2023-08-01T07:34:02;0.85;;;0.55;;
56427;SDS011;42331;53.578;9.760;2023-08-01T07:36:32;2.28;;;0.70;;
56427;SDS011;42331;53.578;9.760;2023-08-01T07:39:03;1.05;;;0.50;;
56427;SDS011;42331;53.578;9.760;2023-08-01T07:41:34;2.15;;;0.60;;
56427;SDS011;42331;53.578;9.760;2023-08-01T07:44:05;1.20;;;0.50;;
56427;SDS011;42331;53.578;9.760;2023-08-01T07:46:35;1.20;;;0.63;;
56427;SDS011;42331;53.578;9.760;2023-08-01T07:49:06;1.30;;;0.87;;
56427;SDS011;42331;53.578;9.760;2023-08-01T07:51:37;1.43;;;0.70;;
56427;SDS011;42331;53.578;9.760;2023-08-01T07:54:07;0.93;;;0.57;;
56427;SDS011;42331;53.578;9.760;2023-08-01T07:56:38;1.37;;;0.70;;
56427;SDS011;42331;53.578;9.760;2023-08-01T07:59:09;1.17;;;0.63;;
56427;SDS011;42331;53.578;9.760;2023-08-01T08:01:40;1.23;;;0.65;;
56427;SDS011;42331;53.578;9.760;2023-08-01T08:04:11;0.82;;;0.50;;
56427;SDS011;42331;53.578;9.760;2023-08-01T08:09:13;1.25;;;0.60;;
56427;SDS011;42331;53.578;9.760;2023-08-01T08:11:44;1.57;;;0.87;;
56427;SDS011;42331;53.578;9.760;2023-08-01T08:14:14;2.47;;;1.10;;
56427;SDS011;42331;53.578;9.760;2023-08-01T08:16:45;2.20;;;1.00;;
56427;SDS011;42331;53.578;9.760;2023-08-01T08:19:20;1.10;;;0.70;;
56427;SDS011;42331;53.578;9.760;2023-08-01T08:21:50;0.77;;;0.47;;
56427;SDS011;42331;53.578;9.760;2023-08-01T08:24:21;1.43;;;0.60;;
56427;SDS011;42331;53.578;9.760;2023-08-01T08:26:52;1.10;;;0.60;;
56427;SDS011;42331;53.578;9.760;2023-08-01T08:29:22;0.73;;;0.43;;
56427;SDS011;42331;53.578;9.760;2023-08-01T08:31:53;1.33;;;0.50;;
56427;SDS011;42331;53.578;9.760;2023-08-01T08:34:24;1.20;;;0.60;;
56427;SDS011;42331;53.578;9.760;2023-08-01T08:36:55;1.77;;;1.00;;
56427;SDS011;42331;53.578;9.760;2023-08-01T08:39:25;2.07;;;0.97;;
56427;SDS011;42331;53.578;9.760;2023-08-01T08:41:56;1.90;;;0.80;;
56427;SDS011;42331;53.578;9.760;2023-08-01T08:44:28;1.48;;;0.80;;
56427;SDS011;42331;53.578;9.760;2023-08-01T08:47:02;1.02;;;0.68;;
56427;SDS011;42331;53.578;9.760;2023-08-01T08:49:34;1.17;;;0.70;;
56427;SDS011;42331;53.578;9.760;2023-08-01T08:52:05;1.58;;;0.75;;
56427;SDS011;42331;53.578;9.760;2023-08-01T08:54:36;1.30;;;0.80;;
56427;SDS011;42331;53.578;9.760;2023-08-01T08:57:07;1.08;;;0.57;;
56427;SDS011;42331;53.578;9.760;2023-08-01T08:59:38;3.35;;;1.23;;
56427;SDS011;42331;53.578;9.760;2023-08-01T09:02:09;0.93;;;0.40;;
56427;SDS011;42331;53.578;9.760;2023-08-01T09:04:40;1.57;;;0.73;;
56427;SDS011;42331;53.578;9.760;2023-08-01T09:07:11;1.27;;;0.53;;
56427;SDS011;42331;53.578;9.760;2023-08-01T09:09:45;0.65;;;0.30;;
56427;SDS011;42331;53.578;9.760;2023-08-01T09:12:16;1.13;;;0.65;;
56427;SDS011;42331;53.578;9.760;2023-08-01T09:14:47;1.17;;;0.73;;
56427;SDS011;42331;53.578;9.760;2023-08-01T09:17:20;2.25;;;1.40;;
56427;SDS011;42331;53.578;9.760;2023-08-01T09:20:07;0.75;;;0.35;;
56427;SDS011;42331;53.578;9.760;2023-08-01T09:22:44;1.20;;;0.60;;
56427;SDS011;42331;53.578;9.760;2023-08-01T09:25:51;1.30;;;0.60;;
56427;SDS011;42331;53.578;9.760;2023-08-01T09:28:22;1.13;;;0.50;;
56427;SDS011;42331;53.578;9.760;2023-08-01T09:30:54;1.17;;;0.60;;
56427;SDS011;42331;53.578;9.760;2023-08-01T09:33:41;0.90;;;0.40;;
56427;SDS011;42331;53.578;9.760;2023-08-01T09:36:20;0.70;;;0.43;;
56427;SDS011;42331;53.578;9.760;2023-08-01T09:39:06;2.33;;;0.88;;
56427;SDS011;42331;53.578;9.760;2023-08-01T09:41:46;0.82;;;0.47;;
56427;SDS011;42331;53.578;9.760;2023-08-01T09:48:11;1.48;;;0.50;;
56427;SDS011;42331;53.578;9.760;2023-08-01T09:51:09;1.27;;;0.35;;
56427;SDS011;42331;53.578;9.760;2023-08-01T09:53:50;0.65;;;0.40;;
56427;SDS011;42331;53.578;9.760;2023-08-01T09:56:56;0.40;;;0.20;;
56427;SDS011;42331;53.578;9.760;2023-08-01T10:02:07;2.22;;;0.80;;
56427;SDS011;42331;53.578;9.760;2023-08-01T10:04:54;0.52;;;0.30;;
56427;SDS011;42331;53.578;9.760;2023-08-01T10:07:28;0.43;;;0.30;;
56427;SDS011;42331;53.578;9.760;2023-08-01T10:10:05;0.30;;;0.20;;
56427;SDS011;42331;53.578;9.760;2023-08-01T10:12:47;0.30;;;0.20;;
56427;SDS011;42331;53.578;9.760;2023-08-01T10:15:33;0.15;;;0.10;;
56427;SDS011;42331;53.578;9.760;2023-08-01T10:18:09;1.13;;;0.20;;
56427;SDS011;42331;53.578;9.760;2023-08-01T10:20:40;0.68;;;0.28;;
56427;SDS011;42331;53.578;9.760;2023-08-01T10:23:15;0.20;;;0.20;;
56427;SDS011;42331;53.578;9.760;2023-08-01T10:25:52;0.20;;;0.10;;
56427;SDS011;42331;53.578;9.760;2023-08-01T10:28:36;0.63;;;0.30;;
56427;SDS011;42331;53.578;9.760;2023-08-01T10:31:12;0.30;;;0.20;;
56427;SDS011;42331;53.578;9.760;2023-08-01T10:33:51;0.35;;;0.10;;
56427;SDS011;42331;53.578;9.760;2023-08-01T10:36:23;0.70;;;0.20;;
56427;SDS011;42331;53.578;9.760;2023-08-01T10:38:57;0.35;;;0.20;;
56427;SDS011;42331;53.578;9.760;2023-08-01T10:44:53;0.10;;;0.10;;
56427;SDS011;42331;53.578;9.760;2023-08-01T10:47:27;0.85;;;0.30;;
56427;SDS011;42331;53.578;9.760;2023-08-01T10:49:58;0.15;;;0.10;;
56427;SDS011;42331;53.578;9.760;2023-08-01T10:52:29;0.45;;;0.10;;
56427;SDS011;42331;53.578;9.760;2023-08-01T10:55:00;0.55;;;0.10;;
56427;SDS011;42331;53.578;9.760;2023-08-01T10:57:34;0.17;;;0.00;;
56427;SDS011;42331;53.578;9.760;2023-08-01T11:00:31;0.50;;;0.13;;
56427;SDS011;42331;53.578;9.760;2023-08-01T11:03:09;0.20;;;0.10;;
56427;SDS011;42331;53.578;9.760;2023-08-01T11:05:40;0.30;;;0.10;;
56427;SDS011;42331;53.578;9.760;2023-08-01T11:08:10;0.43;;;0.10;;
56427;SDS011;42331;53.578;9.760;2023-08-01T11:10:49;0.43;;;0.10;;
56427;SDS011;42331;53.578;9.760;2023-08-01T11:13:27;0.47;;;0.15;;
56427;SDS011;42331;53.578;9.760;2023-08-01T11:15:58;0.00;;;0.00;;
56427;SDS011;42331;53.578;9.760;2023-08-01T11:18:29;0.10;;;0.10;;
56427;SDS011;42331;53.578;9.760;2023-08-01T11:21:00;0.30;;;0.22;;
56427;SDS011;42331;53.578;9.760;2023-08-01T11:23:31;0.00;;;0.00;;
56427;SDS011;42331;53.578;9.760;2023-08-01T11:26:06;0.20;;;0.15;;
56427;SDS011;42331;53.578;9.760;2023-08-01T11:28:38;0.45;;;0.15;;
56427;SDS011;42331;53.578;9.760;2023-08-01T11:31:12;0.25;;;0.10;;
56427;SDS011;42331;53.578;9.760;2023-08-01T11:33:43;0.17;;;0.13;;
56427;SDS011;42331;53.578;9.760;2023-08-01T11:36:26;0.00;;;0.00;;
56427;SDS011;42331;53.578;9.760;2023-08-01T11:38:58;0.00;;;0.00;;
56427;SDS011;42331;53.578;9.760;2023-08-01T11:41:29;0.20;;;0.10;;
56427;SDS011;42331;53.578;9.760;2023-08-01T11:44:01;0.10;;;0.10;;
56427;SDS011;42331;53.578;9.760;2023-08-01T11:46:34;0.10;;;0.05;;
56427;SDS011;42331;53.578;9.760;2023-08-01T11:49:08;0.10;;;0.10;;
56427;SDS011;42331;53.578;9.760;2023-08-01T11:51:42;0.10;;;0.00;;
56427;SDS011;42331;53.578;9.760;2023-08-01T11:54:14;0.00;;;0.00;;
56427;SDS011;42331;53.578;9.760;2023-08-01T11:56:45;0.00;;;0.00;;
56427;SDS011;42331;53.578;9.760;2023-08-01T11:59:16;0.38;;;0.10;;
56427;SDS011;42331;53.578;9.760;2023-08-01T12:01:47;0.10;;;0.10;;
56427;SDS011;42331;53.578;9.760;2023-08-01T12:04:25;0.15;;;0.10;;
56427;SDS011;42331;53.578;9.760;2023-08-01T12:06:59;0.32;;;0.10;;
56427;SDS011;42331;53.578;9.760;2023-08-01T12:09:31;0.35;;;0.20;;
56427;SDS011;42331;53.578;9.760;2023-08-01T12:12:03;0.52;;;0.10;;
56427;SDS011;42331;53.578;9.760;2023-08-01T12:14:38;0.20;;;0.17;;
56427;SDS011;42331;53.578;9.760;2023-08-01T12:17:10;0.20;;;0.10;;
56427;SDS011;42331;53.578;9.760;2023-08-01T12:19:41;0.22;;;0.13;;
56427;SDS011;42331;53.578;9.760;2023-08-01T12:22:12;0.10;;;0.10;;
56427;SDS011;42331;53.578;9.760;2023-08-01T12:24:43;0.30;;;0.10;;
56427;SDS011;42331;53.578;9.760;2023-08-01T12:27:13;0.22;;;0.10;;
56427;SDS011;42331;53.578;9.760;2023-08-01T12:29:45;0.30;;;0.20;;
56427;SDS011;42331;53.578;9.760;2023-08-01T12:32:16;0.20;;;0.10;;
56427;SDS011;42331;53.578;9.760;2023-08-01T12:34:46;0.50;;;0.30;;
56427;SDS011;42331;53.578;9.760;2023-08-01T12:37:17;0.98;;;0.45;;
56427;SDS011;42331;53.578;9.760;2023-08-01T12:39:48;0.10;;;0.00;;
56427;SDS011;42331;53.578;9.760;2023-08-01T12:42:26;0.30;;;0.20;;
56427;SDS011;42331;53.578;9.760;2023-08-01T12:44:57;0.00;;;0.00;;
56427;SDS011;42331;53.578;9.760;2023-08-01T12:47:28;0.10;;;0.10;;
56427;SDS011;42331;53.578;9.760;2023-08-01T12:49:58;0.15;;;0.15;;
56427;SDS011;42331;53.578;9.760;2023-08-01T12:52:29;0.57;;;0.13;;
56427;SDS011;42331;53.578;9.760;2023-08-01T12:55:00;0.20;;;0.20;;
56427;SDS011;42331;53.578;9.760;2023-08-01T12:57:30;0.83;;;0.20;;
56427;SDS011;42331;53.578;9.760;2023-08-01T13:00:01;0.10;;;0.10;;
56427;SDS011;42331;53.578;9.760;2023-08-01T13:02:32;0.20;;;0.17;;
56427;SDS011;42331;53.578;9.760;2023-08-01T13:05:04;0.17;;;0.17;;
56427;SDS011;42331;53.578;9.760;2023-08-01T13:07:35;0.20;;;0.10;;
56427;SDS011;42331;53.578;9.760;2023-08-01T13:10:06;0.77;;;0.20;;
56427;SDS011;42331;53.578;9.760;2023-08-01T13:12:37;0.40;;;0.20;;
56427;SDS011;42331;53.578;9.760;2023-08-01T13:15:08;0.30;;;0.28;;
56427;SDS011;42331;53.578;9.760;2023-08-01T13:17:39;0.32;;;0.10;;
56427;SDS011;42331;53.578;9.760;2023-08-01T13:20:12;0.73;;;0.30;;
56427;SDS011;42331;53.578;9.760;2023-08-01T13:22:45;0.32;;;0.20;;
56427;SDS011;42331;53.578;9.760;2023-08-01T13:25:16;0.32;;;0.20;;
56427;SDS011;42331;53.578;9.760;2023-08-01T13:30:19;0.30;;;0.20;;
56427;SDS011;42331;53.578;9.760;2023-08-01T13:32:50;0.20;;;0.10;;
56427;SDS011;42331;53.578;9.760;2023-08-01T13:35:20;0.35;;;0.20;;
56427;SDS011;42331;53.578;9.760;2023-08-01T13:37:56;0.57;;;0.25;;
56427;SDS011;42331;53.578;9.760;2023-08-01T13:40:27;0.28;;;0.20;;
56427;SDS011;42331;53.578;9.760;2023-08-01T13:42:58;0.05;;;0.05;;
56427;SDS011;42331;53.578;9.760;2023-08-01T13:45:32;0.27;;;0.20;;
56427;SDS011;42331;53.578;9.760;2023-08-01T13:48:02;0.40;;;0.10;;
56427;SDS011;42331;53.578;9.760;2023-08-01T13:50:33;0.77;;;0.20;;
56427;SDS011;42331;53.578;9.760;2023-08-01T13:53:04;0.73;;;0.20;;
56427;SDS011;42331;53.578;9.760;2023-08-01T13:55:40;0.05;;;0.05;;
56427;SDS011;42331;53.578;9.760;2023-08-01T13:58:11;0.10;;;0.03;;
56427;SDS011;42331;53.578;9.760;2023-08-01T14:00:42;0.22;;;0.05;;
56427;SDS011;42331;53.578;9.760;2023-08-01T14:03:12;0.10;;;0.10;;
56427;SDS011;42331;53.578;9.760;2023-08-01T14:05:43;0.00;;;0.00;;
56427;SDS011;42331;53.578;9.760;2023-08-01T14:08:14;0.00;;;0.00;;
56427;SDS011;42331;53.578;9.760;2023-08-01T14:10:44;0.22;;;0.10;;
56427;SDS011;42331;53.578;9.760;2023-08-01T14:13:15;0.10;;;0.10;;
56427;SDS011;42331;53.578;9.760;2023-08-01T14:15:46;0.10;;;0.00;;
56427;SDS011;42331;53.578;9.760;2023-08-01T14:18:16;0.10;;;0.10;;
56427;SDS011;42331;53.578;9.760;2023-08-01T14:20:47;0.03;;;0.00;;
56427;SDS011;42331;53.578;9.760;2023-08-01T14:23:24;0.00;;;0.00;;
56427;SDS011;42331;53.578;9.760;2023-08-01T14:26:03;0.05;;;0.05;;
56427;SDS011;42331;53.578;9.760;2023-08-01T14:28:39;0.10;;;0.10;;
56427;SDS011;42331;53.578;9.760;2023-08-01T14:31:18;0.25;;;0.13;;
56427;SDS011;42331;53.578;9.760;2023-08-01T14:33:48;0.20;;;0.10;;
56427;SDS011;42331;53.578;9.760;2023-08-01T14:36:19;0.30;;;0.20;;
56427;SDS011;42331;53.578;9.760;2023-08-01T14:38:50;0.20;;;0.10;;
56427;SDS011;42331;53.578;9.760;2023-08-01T14:41:24;0.30;;;0.20;;
56427;SDS011;42331;53.578;9.760;2023-08-01T14:43:55;0.28;;;0.10;;
56427;SDS011;42331;53.578;9.760;2023-08-01T14:46:26;0.28;;;0.20;;
56427;SDS011;42331;53.578;9.760;2023-08-01T14:48:57;0.17;;;0.10;;
56427;SDS011;42331;53.578;9.760;2023-08-01T14:51:27;0.10;;;0.10;;
56427;SDS011;42331;53.578;9.760;2023-08-01T14:53:58;0.20;;;0.20;;
56427;SDS011;42331;53.578;9.760;2023-08-01T14:56:29;1.67;;;0.47;;
56427;SDS011;42331;53.578;9.760;2023-08-01T14:59:00;1.10;;;0.38;;
56427;SDS011;42331;53.578;9.760;2023-08-01T15:01:31;0.28;;;0.10;;
56427;SDS011;42331;53.578;9.760;2023-08-01T15:04:01;0.65;;;0.38;;
56427;SDS011;42331;53.578;9.760;2023-08-01T15:06:32;0.30;;;0.20;;
56427;SDS011;42331;53.578;9.760;2023-08-01T15:09:03;0.10;;;0.10;;
56427;SDS011;42331;53.578;9.760;2023-08-01T15:11:34;0.20;;;0.20;;
56427;SDS011;42331;53.578;9.760;2023-08-01T15:14:05;0.70;;;0.20;;
56427;SDS011;42331;53.578;9.760;2023-08-01T15:16:36;0.52;;;0.40;;
56427;SDS011;42331;53.578;9.760;2023-08-01T15:19:09;0.30;;;0.20;;
56427;SDS011;42331;53.578;9.760;2023-08-01T15:21:39;0.52;;;0.30;;
56427;SDS011;42331;53.578;9.760;2023-08-01T15:24:10;0.50;;;0.30;;
56427;SDS011;42331;53.578;9.760;2023-08-01T15:26:41;0.60;;;0.30;;
56427;SDS011;42331;53.578;9.760;2023-08-01T15:29:12;0.20;;;0.15;;
56427;SDS011;42331;53.578;9.760;2023-08-01T15:31:44;0.70;;;0.22;;
56427;SDS011;42331;53.578;9.760;2023-08-01T15:34:14;0.38;;;0.20;;
56427;SDS011;42331;53.578;9.760;2023-08-01T15:36:46;0.10;;;0.10;;
56427;SDS011;42331;53.578;9.760;2023-08-01T15:39:18;0.32;;;0.20;;
56427;SDS011;42331;53.578;9.760;2023-08-01T15:41:48;0.28;;;0.20;;
56427;SDS011;42331;53.578;9.760;2023-08-01T15:44:20;0.93;;;0.30;;